createdAt,value
2022-12-22T00:00:09.229Z,93740.00
2022-12-22T00:02:54.737Z,93737.00
2022-12-22T00:05:44.183Z,93740.00
2022-12-22T00:08:32.134Z,93740.00
2022-12-22T00:11:25.008Z,93743.00
2022-12-22T00:14:10.795Z,93743.00
2022-12-22T00:16:59.637Z,93738.00
2022-12-22T00:19:49.261Z,93723.00
2022-12-22T00:22:44.437Z,93723.00
2022-12-22T00:25:36.122Z,93709.00
2022-12-22T00:28:32.493Z,93716.00
2022-12-22T00:31:18.526Z,93718.00
2022-12-22T00:34:03.864Z,93717.00
2022-12-22T00:36:49.588Z,93705.00
2022-12-22T00:39:38.457Z,93705.00
2022-12-22T00:42:24.012Z,93697.00
2022-12-22T00:45:12.247Z,93691.00
2022-12-22T00:47:57.953Z,93698.00
2022-12-22T00:50:55.098Z,93691.00
2022-12-22T00:53:41.381Z,93687.00
2022-12-22T00:56:27.526Z,93681.00
2022-12-22T00:59:16.434Z,93685.00
2022-12-22T01:02:01.711Z,93683.00
2022-12-22T01:04:52.652Z,93681.00
2022-12-22T01:07:40.825Z,93694.00
2022-12-22T01:10:32.661Z,93684.00
2022-12-22T01:13:18.576Z,93680.00
2022-12-22T01:16:04.585Z,93686.00
2022-12-22T01:18:50.339Z,93690.00
2022-12-22T01:21:36.503Z,93693.00
2022-12-22T01:24:29.897Z,93681.00
2022-12-22T01:27:15.592Z,93681.00
2022-12-22T01:30:02.948Z,93668.00
2022-12-22T01:32:51.455Z,93687.00
2022-12-22T01:35:42.952Z,93692.00
2022-12-22T01:38:28.906Z,93687.00
2022-12-22T01:41:16.751Z,93683.00
2022-12-22T01:44:02.485Z,93665.00
2022-12-22T01:46:52.798Z,93669.00
2022-12-22T01:50:16.424Z,93676.00
2022-12-22T01:53:01.874Z,93664.00
2022-12-22T01:55:47.125Z,93657.00
2022-12-22T01:58:49.037Z,93670.00
2022-12-22T02:01:35.158Z,93666.00
2022-12-22T02:04:23.528Z,93657.00
2022-12-22T02:07:23.611Z,93660.00
2022-12-22T02:10:31.011Z,93656.00
2022-12-22T02:13:33.678Z,93648.00
2022-12-22T02:17:20.260Z,93654.00
2022-12-22T02:20:45.134Z,93671.00
2022-12-22T02:23:39.414Z,93656.00
2022-12-22T02:26:55.544Z,93647.00
2022-12-22T02:29:54.631Z,93643.00
2022-12-22T02:32:44.079Z,93636.00
2022-12-22T02:35:36.006Z,93630.00
2022-12-22T02:39:00.120Z,93641.00
2022-12-22T02:42:14.578Z,93643.00
2022-12-22T02:45:18.414Z,93634.00
2022-12-22T02:48:53.576Z,93639.00
2022-12-22T02:51:45.117Z,93631.00
2022-12-22T02:54:32.407Z,93630.00
2022-12-22T02:57:22.168Z,93621.00
2022-12-22T03:00:08.895Z,93611.00
2022-12-22T03:02:55.042Z,93627.00
2022-12-22T03:05:43.141Z,93615.00
2022-12-22T03:08:30.254Z,93594.00
2022-12-22T03:11:15.372Z,93614.00
2022-12-22T03:14:03.031Z,93609.00
2022-12-22T03:16:51.325Z,93612.00
2022-12-22T03:19:38.247Z,93612.00
2022-12-22T03:22:25.532Z,93613.00
2022-12-22T03:25:13.618Z,93620.00
2022-12-22T03:27:42.848Z,93601.00
2022-12-22T03:30:13.234Z,93591.00
2022-12-22T03:32:44.840Z,93593.00
2022-12-22T03:35:11.719Z,93584.00
2022-12-22T03:37:38.665Z,93592.00
2022-12-22T03:40:08.042Z,93588.00
2022-12-22T03:42:55.941Z,93590.00
2022-12-22T03:45:41.164Z,93594.00
2022-12-22T03:48:08.132Z,93585.00
2022-12-22T03:50:35.175Z,93567.00
2022-12-22T03:53:02.142Z,93559.00
2022-12-22T03:55:29.133Z,93565.00
2022-12-22T03:57:58.291Z,93565.00
2022-12-22T04:00:27.680Z,93566.00
2022-12-22T04:02:59.094Z,93547.00
2022-12-22T04:05:27.370Z,93546.00
2022-12-22T04:07:56.733Z,93546.00
2022-12-22T04:10:42.477Z,93542.00
2022-12-22T04:13:09.470Z,93539.00
2022-12-22T04:15:41.116Z,93553.00
2022-12-22T04:18:08.103Z,93533.00
2022-12-22T04:20:39.842Z,93539.00
2022-12-22T04:23:06.833Z,93542.00
2022-12-22T04:25:33.838Z,93550.00
2022-12-22T04:28:00.841Z,93550.00
2022-12-22T04:30:27.757Z,93553.00
2022-12-22T04:32:57.615Z,93563.00
2022-12-22T04:35:26.731Z,93554.00
2022-12-22T04:37:53.646Z,93560.00
2022-12-22T04:40:20.527Z,93553.00
2022-12-22T04:42:47.388Z,93555.00
2022-12-22T04:45:19.227Z,93559.00
2022-12-22T04:47:46.098Z,93546.00
2022-12-22T04:50:15.570Z,93555.00
2022-12-22T04:52:47.311Z,93553.00
2022-12-22T04:55:17.286Z,93555.00
2022-12-22T04:57:44.221Z,93548.00
2022-12-22T05:00:16.781Z,93558.00
2022-12-22T05:02:46.209Z,93560.00
2022-12-22T05:05:15.471Z,93560.00
2022-12-22T05:07:43.334Z,93551.00
2022-12-22T05:10:13.533Z,93552.00
2022-12-22T05:12:55.423Z,93546.00
2022-12-22T05:15:34.098Z,93541.00
2022-12-22T05:18:04.512Z,93541.00
2022-12-22T05:20:33.935Z,93538.00
2022-12-22T05:23:00.985Z,93538.00
2022-12-22T05:25:34.491Z,93539.00
2022-12-22T05:28:02.758Z,93548.00
2022-12-22T05:30:31.901Z,93545.00
2022-12-22T05:33:01.423Z,93540.00
2022-12-22T05:35:30.752Z,93542.00
2022-12-22T05:37:57.766Z,93543.00
2022-12-22T05:40:27.654Z,93547.00
2022-12-22T05:42:54.665Z,93537.00
2022-12-22T05:45:22.233Z,93535.00
2022-12-22T05:47:52.225Z,93545.00
2022-12-22T05:50:24.786Z,93527.00
2022-12-22T05:52:51.778Z,93546.00
2022-12-22T05:55:23.380Z,93532.00
2022-12-22T05:57:50.149Z,93541.00
2022-12-22T06:00:17.827Z,93537.00
2022-12-22T06:02:48.181Z,93543.00
2022-12-22T06:05:15.726Z,93544.00
2022-12-22T06:07:47.128Z,93555.00
2022-12-22T06:10:15.013Z,93561.00
2022-12-22T06:12:43.311Z,93563.00
2022-12-22T06:15:13.921Z,93556.00
2022-12-22T06:17:44.649Z,93554.00
2022-12-22T06:20:13.346Z,93557.00
2022-12-22T06:22:42.562Z,93538.00
2022-12-22T06:25:13.755Z,93549.00
2022-12-22T06:27:44.928Z,93540.00
2022-12-22T06:30:15.298Z,93548.00
2022-12-22T06:32:42.659Z,93556.00
2022-12-22T06:35:12.760Z,93552.00
2022-12-22T06:37:39.674Z,93541.00
2022-12-22T06:40:08.206Z,93545.00
2022-12-22T06:42:53.388Z,93550.00
2022-12-22T06:45:20.371Z,93546.00
2022-12-22T06:47:51.835Z,93523.00
2022-12-22T06:50:21.933Z,93540.00
2022-12-22T06:52:48.833Z,93536.00
2022-12-22T06:55:15.849Z,93548.00
2022-12-22T06:57:42.818Z,93527.00
2022-12-22T07:00:11.033Z,93520.00
2022-12-22T07:02:40.495Z,93521.00
2022-12-22T07:05:07.964Z,93514.00
2022-12-22T07:07:35.053Z,93508.00
2022-12-22T07:10:01.937Z,93513.00
2022-12-22T07:12:28.807Z,93512.00
2022-12-22T07:14:56.199Z,93516.00
2022-12-22T07:17:26.274Z,93505.00
2022-12-22T07:19:53.198Z,93514.00
2022-12-22T07:22:25.654Z,93512.00
2022-12-22T07:24:59.043Z,93505.00
2022-12-22T07:27:26.164Z,93521.00
2022-12-22T07:29:53.070Z,93514.00
2022-12-22T07:32:22.416Z,93526.00
2022-12-22T07:34:49.272Z,93509.00
2022-12-22T07:37:16.181Z,93520.00
2022-12-22T07:39:43.031Z,93508.00
2022-12-22T07:42:30.906Z,93498.00
2022-12-22T07:44:57.889Z,93519.00
2022-12-22T07:47:31.691Z,93529.00
2022-12-22T07:50:20.708Z,93537.00
2022-12-22T07:52:50.141Z,93526.00
2022-12-22T07:55:17.120Z,93530.00
2022-12-22T07:57:44.083Z,93529.00
2022-12-22T08:00:12.206Z,93521.00
2022-12-22T08:02:41.282Z,93522.00
2022-12-22T08:05:09.903Z,93531.00
2022-12-22T08:07:36.798Z,93527.00
2022-12-22T08:10:04.237Z,93531.00
2022-12-22T08:12:38.210Z,93542.00
2022-12-22T08:15:10.035Z,93531.00
2022-12-22T08:17:40.135Z,93541.00
2022-12-22T08:20:07.912Z,93538.00
2022-12-22T08:22:34.855Z,93532.00
2022-12-22T08:25:01.758Z,93533.00
2022-12-22T08:27:53.489Z,93545.00
2022-12-22T08:30:20.505Z,93532.00
2022-12-22T08:32:49.909Z,93527.00
2022-12-22T08:35:19.318Z,93542.00
2022-12-22T08:37:49.823Z,93544.00
2022-12-22T08:40:25.583Z,93549.00
2022-12-22T08:43:04.434Z,93557.00
2022-12-22T08:45:34.301Z,93550.00
2022-12-22T08:48:05.815Z,93585.00
2022-12-22T08:50:32.638Z,93602.00
2022-12-22T08:53:18.717Z,93593.00
2022-12-22T08:55:56.122Z,93589.00
2022-12-22T08:58:23.188Z,93579.00
2022-12-22T09:00:52.731Z,93579.00
2022-12-22T09:03:19.745Z,93580.00
2022-12-22T09:05:46.639Z,93582.00
2022-12-22T09:08:15.581Z,93575.00
2022-12-22T09:10:43.995Z,93560.00
2022-12-22T09:13:15.367Z,93556.00
2022-12-22T09:15:42.270Z,93554.00
2022-12-22T09:18:09.173Z,93561.00
2022-12-22T09:20:38.262Z,93560.00
2022-12-22T09:23:05.130Z,93562.00
2022-12-22T09:25:35.125Z,93565.00
2022-12-22T09:28:02.073Z,93584.00
2022-12-22T09:30:28.984Z,93592.00
2022-12-22T09:32:55.919Z,93585.00
2022-12-22T09:35:22.903Z,93586.00
2022-12-22T09:37:49.957Z,93594.00
2022-12-22T09:40:21.725Z,93599.00
2022-12-22T09:42:48.685Z,93604.00
2022-12-22T09:45:20.340Z,93607.00
2022-12-22T09:47:53.698Z,93595.00
2022-12-22T09:50:24.879Z,93610.00
2022-12-22T09:52:59.975Z,93600.00
2022-12-22T09:55:26.776Z,93612.00
2022-12-22T09:57:54.620Z,93604.00
2022-12-22T10:00:28.420Z,93626.00
2022-12-22T10:03:13.077Z,93618.00
2022-12-22T10:06:08.184Z,93639.00
2022-12-22T10:08:40.742Z,93624.00
2022-12-22T10:11:15.555Z,93647.00
2022-12-22T10:13:48.269Z,93652.00
2022-12-22T10:16:28.393Z,93641.00
2022-12-22T10:19:12.649Z,93623.00
2022-12-22T10:21:46.359Z,93647.00
2022-12-22T10:24:31.891Z,93645.00
2022-12-22T10:27:00.912Z,93638.00
2022-12-22T10:29:28.763Z,93640.00
2022-12-22T10:32:12.814Z,93648.00
2022-12-22T10:34:58.474Z,93652.00
2022-12-22T10:37:40.070Z,93657.00
2022-12-22T10:40:20.517Z,93671.00
2022-12-22T10:42:55.920Z,93671.00
2022-12-22T10:45:26.737Z,93672.00
2022-12-22T10:48:00.057Z,93668.00
2022-12-22T10:50:27.000Z,93672.00
2022-12-22T10:52:59.002Z,93681.00
2022-12-22T10:55:29.238Z,93690.00
2022-12-22T10:58:11.490Z,93688.00
2022-12-22T11:00:39.114Z,93689.00
2022-12-22T11:03:08.147Z,93684.00
2022-12-22T11:05:37.640Z,93683.00
2022-12-22T11:08:21.074Z,93682.00
2022-12-22T11:11:05.595Z,93675.00
2022-12-22T11:13:56.000Z,93642.00
2022-12-22T11:16:31.593Z,93664.00
2022-12-22T11:19:01.485Z,93655.00
2022-12-22T11:21:51.411Z,93660.00
2022-12-22T11:24:34.523Z,93663.00
2022-12-22T11:27:55.660Z,93650.00
2022-12-22T11:30:35.256Z,93648.00
2022-12-22T11:33:23.310Z,93648.00
2022-12-22T11:36:05.634Z,93649.00
2022-12-22T11:38:54.494Z,93633.00
2022-12-22T11:41:46.787Z,93646.00
2022-12-22T11:45:03.497Z,93640.00
2022-12-22T11:48:05.673Z,93637.00
2022-12-22T11:50:59.617Z,93641.00
2022-12-22T11:54:14.676Z,93647.00
2022-12-22T11:57:15.831Z,93648.00
2022-12-22T12:00:10.631Z,93637.00
2022-12-22T12:02:55.881Z,93631.00
2022-12-22T12:06:06.331Z,93638.00
2022-12-22T12:09:01.381Z,93640.00
2022-12-22T12:11:57.598Z,93646.00
2022-12-22T12:15:04.052Z,93634.00
2022-12-22T12:18:06.413Z,93638.00
2022-12-22T12:21:27.346Z,93646.00
2022-12-22T12:24:07.271Z,93631.00
2022-12-22T12:27:05.695Z,93651.00
2022-12-22T12:29:44.389Z,93646.00
2022-12-22T12:32:22.372Z,93643.00
2022-12-22T12:35:34.870Z,93652.00
2022-12-22T12:39:05.739Z,93642.00
2022-12-22T12:41:45.545Z,93656.00
2022-12-22T12:44:21.363Z,93657.00
2022-12-22T12:46:51.345Z,93642.00
2022-12-22T12:49:36.515Z,93664.00
2022-12-22T12:52:11.459Z,93657.00
2022-12-22T12:54:45.117Z,93666.00
2022-12-22T12:57:26.252Z,93647.00
2022-12-22T13:00:00.879Z,93628.00
2022-12-22T13:02:28.101Z,93664.00
2022-12-22T13:05:14.890Z,93663.00
2022-12-22T13:08:15.410Z,93671.00
2022-12-22T13:11:08.530Z,93667.00
2022-12-22T13:13:35.562Z,93667.00
2022-12-22T13:16:02.909Z,93679.00
2022-12-22T13:18:47.465Z,93671.00
2022-12-22T13:21:53.886Z,93664.00
2022-12-22T13:24:26.464Z,93674.00
2022-12-22T13:26:56.265Z,93668.00
2022-12-22T13:29:30.627Z,93675.00
2022-12-22T13:32:14.078Z,93681.00
2022-12-22T13:35:28.934Z,93681.00
2022-12-22T13:37:47.299Z,93687.00
2022-12-22T13:40:23.145Z,93681.00
2022-12-22T13:42:56.200Z,93696.00
2022-12-22T13:45:46.936Z,93692.00
2022-12-22T13:48:30.509Z,93685.00
2022-12-22T13:51:03.720Z,93692.00
2022-12-22T13:54:07.684Z,93692.00
2022-12-22T13:56:43.654Z,93696.00
2022-12-22T13:59:30.035Z,93700.00
2022-12-22T14:02:11.965Z,93690.00
2022-12-22T14:04:46.855Z,93696.00
2022-12-22T14:07:22.130Z,93704.00
2022-12-22T14:09:55.157Z,93693.00
2022-12-22T14:12:30.391Z,93708.00
2022-12-22T14:15:01.216Z,93700.00
2022-12-22T14:17:31.192Z,93694.00
2022-12-22T14:20:17.007Z,93698.00
2022-12-22T14:23:04.098Z,93701.00
2022-12-22T14:25:39.694Z,93697.00
2022-12-22T14:28:33.515Z,93687.00
2022-12-22T14:31:07.514Z,93701.00
2022-12-22T14:33:35.375Z,93701.00
2022-12-22T14:36:15.563Z,93710.00
2022-12-22T14:39:09.909Z,93713.00
2022-12-22T14:41:51.859Z,93712.00
2022-12-22T14:44:26.979Z,93724.00
2022-12-22T14:47:12.579Z,93747.00
2022-12-22T14:50:00.946Z,93743.00
2022-12-22T14:52:35.352Z,93742.00
2022-12-22T14:55:05.953Z,93745.00
2022-12-22T14:57:40.814Z,93745.00
2022-12-22T15:00:48.416Z,93750.00
2022-12-22T15:03:36.697Z,93741.00
2022-12-22T15:06:47.847Z,93761.00
2022-12-22T15:09:15.962Z,93759.00
2022-12-22T15:11:54.903Z,93750.00
2022-12-22T15:14:34.927Z,93755.00
2022-12-22T15:17:10.363Z,93754.00
2022-12-22T15:19:45.044Z,93752.00
2022-12-22T15:22:12.599Z,93757.00
2022-12-22T15:24:41.856Z,93757.00
2022-12-22T15:27:10.887Z,93751.00
2022-12-22T15:29:40.057Z,93746.00
2022-12-22T15:32:13.780Z,93739.00
2022-12-22T15:34:41.614Z,93712.00
2022-12-22T15:37:12.451Z,93732.00
2022-12-22T15:39:43.954Z,93735.00
2022-12-22T15:42:10.844Z,93731.00
2022-12-22T15:44:39.096Z,93733.00
2022-12-22T15:47:10.522Z,93700.00
2022-12-22T15:49:42.426Z,93731.00
2022-12-22T15:52:13.127Z,93732.00
2022-12-22T15:54:40.131Z,93737.00
2022-12-22T15:57:12.475Z,93728.00
2022-12-22T15:59:39.909Z,93737.00
2022-12-22T16:02:14.437Z,93714.00
2022-12-22T16:04:43.681Z,93720.00
2022-12-22T16:07:13.259Z,93728.00
2022-12-22T16:09:43.537Z,93732.00
2022-12-22T16:12:19.526Z,93715.00
2022-12-22T16:14:52.301Z,93723.00
2022-12-22T16:17:28.029Z,93727.00
2022-12-22T16:19:57.124Z,93728.00
2022-12-22T16:22:34.143Z,93720.00
2022-12-22T16:25:05.541Z,93718.00
2022-12-22T16:27:34.551Z,93721.00
2022-12-22T16:30:05.103Z,93717.00
2022-12-22T16:32:32.344Z,93698.00
2022-12-22T16:35:14.871Z,93706.00
2022-12-22T16:37:42.353Z,93684.00
2022-12-22T16:40:13.159Z,93706.00
2022-12-22T16:45:31.383Z,93697.00
2022-12-22T16:48:04.769Z,93692.00
2022-12-22T16:50:34.094Z,93702.00
2022-12-22T16:53:05.548Z,93696.00
2022-12-22T16:55:33.600Z,93703.00
2022-12-22T16:58:12.108Z,93698.00
2022-12-22T17:00:44.793Z,93695.00
2022-12-22T17:03:23.824Z,93697.00
2022-12-22T17:05:59.341Z,93691.00
2022-12-22T17:08:31.275Z,93698.00
2022-12-22T17:11:09.799Z,93695.00
2022-12-22T17:13:38.929Z,93699.00
2022-12-22T17:16:08.552Z,93696.00
2022-12-22T17:18:36.273Z,93686.00
2022-12-22T17:21:04.291Z,93688.00
2022-12-22T17:23:42.939Z,93691.00
2022-12-22T17:26:14.869Z,93687.00
2022-12-22T17:28:42.530Z,93692.00
2022-12-22T17:31:16.789Z,93667.00
2022-12-22T17:33:43.905Z,93688.00
2022-12-22T17:36:48.998Z,93686.00
2022-12-22T17:39:20.262Z,93674.00
2022-12-22T17:41:52.201Z,93689.00
2022-12-22T17:44:26.257Z,93681.00
2022-12-22T17:46:53.745Z,93679.00
2022-12-22T17:49:26.044Z,93679.00
2022-12-22T17:51:52.992Z,93677.00
2022-12-22T17:54:25.877Z,93675.00
2022-12-22T17:57:00.870Z,93669.00
2022-12-22T17:59:27.887Z,93669.00
2022-12-22T18:01:57.941Z,93653.00
2022-12-22T18:04:27.145Z,93651.00
2022-12-22T18:06:53.997Z,93646.00
2022-12-22T18:09:24.110Z,93637.00
2022-12-22T18:11:51.694Z,93642.00
2022-12-22T18:14:22.944Z,93633.00
2022-12-22T18:16:50.243Z,93629.00
2022-12-22T18:19:17.472Z,93611.00
2022-12-22T18:21:45.080Z,93615.00
2022-12-22T18:24:17.184Z,93615.00
2022-12-22T18:26:44.711Z,93619.00
2022-12-22T18:29:19.001Z,93614.00
2022-12-22T18:31:46.762Z,93609.00
2022-12-22T18:34:13.870Z,93601.00
2022-12-22T18:36:42.591Z,93608.00
2022-12-22T18:39:20.731Z,93600.00
2022-12-22T18:41:47.973Z,93589.00
2022-12-22T18:44:19.184Z,93605.00
2022-12-22T18:46:47.024Z,93594.00
2022-12-22T18:49:17.037Z,93598.00
2022-12-22T18:51:48.921Z,93600.00
2022-12-22T18:54:25.525Z,93588.00
2022-12-22T18:56:57.768Z,93596.00
2022-12-22T18:59:31.270Z,93595.00
2022-12-22T19:02:19.479Z,93588.00
2022-12-22T19:04:47.290Z,93584.00
2022-12-22T19:07:22.287Z,93587.00
2022-12-22T19:09:50.921Z,93588.00
2022-12-22T19:12:25.280Z,93583.00
2022-12-22T19:14:57.475Z,93582.00
2022-12-22T19:17:28.872Z,93562.00
2022-12-22T19:19:59.396Z,93566.00
2022-12-22T19:22:26.297Z,93571.00
2022-12-22T19:24:57.547Z,93566.00
2022-12-22T19:27:26.989Z,93575.00
2022-12-22T19:30:04.008Z,93557.00
2022-12-22T19:32:40.241Z,93557.00
2022-12-22T19:35:18.749Z,93556.00
2022-12-22T19:37:47.528Z,93546.00
2022-12-22T19:40:19.475Z,93548.00
2022-12-22T19:42:49.124Z,93555.00
2022-12-22T19:45:37.102Z,93541.00
2022-12-22T19:48:15.319Z,93545.00
2022-12-22T19:50:45.533Z,93536.00
2022-12-22T19:53:12.763Z,93533.00
2022-12-22T19:55:49.249Z,93543.00
2022-12-22T19:58:28.545Z,93530.00
2022-12-22T20:01:01.226Z,93527.00
2022-12-22T20:03:30.618Z,93515.00
2022-12-22T20:06:00.455Z,93525.00
2022-12-22T20:08:30.529Z,93518.00
2022-12-22T20:10:59.837Z,93520.00
2022-12-22T20:13:31.824Z,93522.00
2022-12-22T20:15:59.537Z,93526.00
2022-12-22T20:18:30.273Z,93522.00
2022-12-22T20:21:03.213Z,93525.00
2022-12-22T20:23:34.023Z,93514.00
2022-12-22T20:26:05.820Z,93509.00
2022-12-22T20:28:39.598Z,93507.00
2022-12-22T20:31:13.519Z,93503.00
2022-12-22T20:33:43.179Z,93501.00
2022-12-22T20:36:22.544Z,93501.00
2022-12-22T20:38:52.350Z,93493.00
2022-12-22T20:41:25.437Z,93480.00
2022-12-22T20:44:00.368Z,93464.00
2022-12-22T20:46:31.812Z,93455.00
2022-12-22T20:49:06.621Z,93465.00
2022-12-22T20:51:39.486Z,93468.00
2022-12-22T20:54:06.460Z,93459.00
2022-12-22T20:56:37.908Z,93456.00
2022-12-22T20:59:15.753Z,93459.00
2022-12-22T21:01:48.606Z,93455.00
2022-12-22T21:04:18.846Z,93444.00
2022-12-22T21:06:59.042Z,93436.00
2022-12-22T21:09:27.300Z,93434.00
2022-12-22T21:11:54.163Z,93431.00
2022-12-22T21:14:21.264Z,93418.00
2022-12-22T21:16:54.351Z,93407.00
2022-12-22T21:19:24.247Z,93424.00
2022-12-22T21:21:51.149Z,93414.00
2022-12-22T21:24:20.526Z,93402.00
2022-12-22T21:26:58.806Z,93415.00
2022-12-22T21:29:27.528Z,93388.00
2022-12-22T21:31:57.466Z,93389.00
2022-12-22T21:34:24.418Z,93394.00
2022-12-22T21:37:00.230Z,93381.00
2022-12-22T21:39:41.922Z,93390.00
2022-12-22T21:42:18.098Z,93394.00
2022-12-22T21:44:45.803Z,93377.00
2022-12-22T21:47:16.214Z,93387.00
2022-12-22T21:49:43.628Z,93382.00
2022-12-22T21:52:13.213Z,93376.00
2022-12-22T21:54:45.446Z,93369.00
2022-12-22T21:57:17.997Z,93366.00
2022-12-22T21:59:47.421Z,93355.00
2022-12-22T22:02:17.854Z,93356.00
2022-12-22T22:04:54.176Z,93350.00
2022-12-22T22:07:22.253Z,93340.00
2022-12-22T22:09:49.157Z,93336.00
2022-12-22T22:12:38.089Z,93333.00
2022-12-22T22:15:06.705Z,93329.00
2022-12-22T22:17:35.893Z,93331.00
2022-12-22T22:20:04.274Z,93333.00
2022-12-22T22:22:31.192Z,93334.00
2022-12-22T22:25:01.102Z,93324.00
2022-12-22T22:27:29.588Z,93330.00
2022-12-22T22:29:59.351Z,93314.00
2022-12-22T22:32:29.311Z,93321.00
2022-12-22T22:34:56.303Z,93318.00
2022-12-22T22:37:25.622Z,93328.00
2022-12-22T22:39:55.003Z,93327.00
2022-12-22T22:42:24.504Z,93319.00
2022-12-22T22:44:53.644Z,93330.00
2022-12-22T22:47:22.715Z,93315.00
2022-12-22T22:49:49.703Z,93313.00
2022-12-22T22:52:19.136Z,93307.00
2022-12-22T22:54:47.332Z,93315.00
2022-12-22T22:57:17.818Z,93307.00
2022-12-22T22:59:44.789Z,93310.00
2022-12-22T23:02:12.009Z,93296.00
2022-12-22T23:04:39.039Z,93300.00
2022-12-22T23:07:09.571Z,93293.00
2022-12-22T23:09:39.491Z,93291.00
2022-12-22T23:12:08.949Z,93286.00
2022-12-22T23:14:35.841Z,93294.00
2022-12-22T23:17:09.833Z,93305.00
2022-12-22T23:19:36.716Z,93289.00
2022-12-22T23:22:06.197Z,93297.00
2022-12-22T23:24:41.986Z,93290.00
2022-12-22T23:27:09.021Z,93294.00
2022-12-22T23:29:39.403Z,93302.00
2022-12-22T23:32:06.872Z,93297.00
2022-12-22T23:34:38.425Z,93301.00
2022-12-22T23:37:05.289Z,93283.00
2022-12-22T23:39:34.464Z,93292.00
2022-12-22T23:42:04.020Z,93305.00
2022-12-22T23:44:33.896Z,93302.00
2022-12-22T23:47:00.955Z,93300.00
2022-12-22T23:49:30.387Z,93312.00
2022-12-22T23:51:57.295Z,93305.00
2022-12-22T23:54:24.408Z,93313.00
2022-12-22T23:56:53.808Z,93313.00
2022-12-22T23:59:20.828Z,93316.00
